Terminal Aerodrome Forecast
Issued by NWS Sioux Falls, SD

Home | Current Version | Previous Version | Text Only | Print | Product List | Glossary Off
Versions: 1 2 3 4 5 6 7 8 9 10 11 12 13 14 15 16 17 18 19 20 21 22

000
FTUS43 KFSD 270043 AAA
TAFFSD
TAF AMD
KFSD 270043Z 2701/2724 01011KT 2SM -SN BR SCT012 OVC025
     FM270300 36012G18KT 2SM -SN BR OVC012
      TEMPO 2704/2708 3/4SM -SN BR BKN007
     FM270900 34013G17KT 4SM -SN OVC012
     FM271300 32012KT P6SM BKN015 OVC025
     FM271700 29010KT P6SM SCT020 BKN050
     FM272200 23005KT P6SM SCT025=

USA.gov is the U.S. government's official web portal to all federal, state and local government web resources and services.